Time;durP1;ratioP1;P1;durP2;ratioP2;P2;SDS_P1;SDS_P2;PMS_P1;PMS_P2;Temp;Humidity;BMP_temperature;BMP_pressure;BME280_temperature;BME280_humidity;BME280_pressure;Samples;Min_cycle;Max_cycle;Signal;HPM_P1;HPM_P2
2022/01/05 00:01:43;;;;;;;4.47;2.40;;;;;;;10.83;100.00;97125.61;4192712;82;28554;-75
2022/01/05 00:07:45;;;;;;;3.30;1.82;;;;;;;10.98;100.00;97173.63;4200900;82;28563;-76
2022/01/05 00:13:46;;;;;;;3.25;1.75;;;;;;;10.67;100.00;97190.76;4128894;84;28613;-77
2022/01/05 00:19:47;;;;;;;4.53;2.85;;;;;;;10.79;100.00;97205.22;4135099;84;28535;-75
2022/01/05 00:25:49;;;;;;;4.65;2.60;;;;;;;10.68;100.00;97215.20;4110655;85;28516;-75
2022/01/05 00:31:50;;;;;;;4.00;2.72;;;;;;;10.39;100.00;97219.87;4109685;85;28520;-76
2022/01/05 00:37:51;;;;;;;4.03;2.50;;;;;;;10.49;100.00;97226.31;4113163;85;28596;-75
2022/01/05 00:43:53;;;;;;;4.15;2.55;;;;;;;10.13;100.00;97213.25;4129660;83;28516;-76
2022/01/05 00:49:54;;;;;;;4.50;3.05;;;;;;;10.21;100.00;97256.19;4120116;84;28563;-77
2022/01/05 00:55:55;;;;;;;5.62;3.37;;;;;;;10.13;100.00;97244.13;4120933;84;28552;-77
2022/01/05 01:01:57;;;;;;;6.50;3.50;;;;;;;10.16;100.00;97238.20;4121760;84;28520;-77
2022/01/05 01:07:58;;;;;;;5.37;2.95;;;;;;;10.02;100.00;97256.76;4129053;84;28550;-77
2022/01/05 01:14:00;;;;;;;4.33;2.62;;;;;;;9.98;100.00;97254.89;4119568;84;28561;-77
2022/01/05 01:20:01;;;;;;;4.40;2.70;;;;;;;10.02;100.00;97264.81;4118456;84;28559;-77
2022/01/05 01:26:03;;;;;;;5.35;2.77;;;;;;;9.90;100.00;97258.94;4131814;84;28536;-78
2022/01/05 01:32:05;;;;;;;5.72;3.02;;;;;;;10.00;100.00;97272.34;4124354;84;28570;-76
2022/01/05 01:38:06;;;;;;;5.45;3.27;;;;;;;9.76;100.00;97280.96;4120931;84;28572;-78
2022/01/05 01:44:08;;;;;;;5.03;3.42;;;;;;;9.80;100.00;97277.73;4123121;84;28515;-76
2022/01/05 01:50:10;;;;;;;5.78;4.05;;;;;;;9.64;100.00;97271.04;4121121;84;28460;-77
2022/01/05 01:56:13;;;;;;;4.95;3.55;;;;;;;9.58;100.00;97271.58;4117865;84;28540;-77
2022/01/05 02:02:16;;;;;;;6.05;3.75;;;;;;;9.72;100.00;97270.48;4123520;84;28548;-78
2022/01/05 02:08:18;;;;;;;5.72;4.00;;;;;;;9.66;100.00;97286.33;4121918;84;28556;-76
2022/01/05 02:14:19;;;;;;;8.38;4.70;;;;;;;9.84;100.00;97293.55;4133262;84;28485;-77
2022/01/05 02:20:26;;;;;;;6.80;5.00;;;;;;;9.99;100.00;97297.58;4117540;84;28597;-77
2022/01/05 02:26:27;;;;;;;6.95;5.10;;;;;;;9.87;100.00;97305.11;4120930;84;28527;-78
2022/01/05 02:32:28;;;;;;;7.85;4.95;;;;;;;9.72;100.00;97311.28;4121266;84;28584;-77
2022/01/05 02:38:30;;;;;;;7.60;5.55;;;;;;;9.65;100.00;97318.27;4122343;84;28500;-78
2022/01/05 02:44:31;;;;;;;8.53;6.00;;;;;;;9.68;100.00;97311.01;4122432;84;28503;-78
2022/01/05 02:50:33;;;;;;;8.58;5.65;;;;;;;9.60;100.00;97311.54;4130409;84;28528;-75
2022/01/05 02:56:35;;;;;;;9.90;4.97;;;;;;;9.54;100.00;97320.12;4128226;84;28548;-77
2022/01/05 03:02:36;;;;;;;6.87;4.78;;;;;;;9.51;100.00;97310.45;4135482;84;28596;-77
2022/01/05 03:08:38;;;;;;;7.92;5.37;;;;;;;9.43;100.00;97307.24;4210570;83;28548;-76
2022/01/05 03:14:39;;;;;;;8.95;5.30;;;;;;;9.35;100.00;97294.35;4214241;82;28539;-77
2022/01/05 03:20:40;;;;;;;7.45;4.75;;;;;;;9.42;100.00;97301.58;4138668;84;28597;-78
2022/01/05 03:26:41;;;;;;;7.35;4.53;;;;;;;9.40;100.00;97301.05;4127451;84;28517;-77
2022/01/05 03:33:07;;;;;;;6.22;4.30;;;;;;;9.47;100.00;97272.62;4209686;82;28504;-77
2022/01/05 03:38:46;;;;;;;9.23;4.92;;;;;;;9.54;100.00;97252.26;4207059;83;28507;-77
2022/01/05 03:44:48;;;;;;;8.40;5.30;;;;;;;9.52;100.00;97259.22;4211839;83;28494;-77
2022/01/05 03:50:49;;;;;;;9.00;5.28;;;;;;;9.41;100.00;97263.77;4203777;83;28516;-75
2022/01/05 03:56:50;;;;;;;8.88;4.67;;;;;;;9.44;100.00;97253.05;4201970;83;28600;-77
2022/01/05 04:02:52;;;;;;;8.00;5.10;;;;;;;9.23;100.00;97247.66;4200483;83;28537;-77
2022/01/05 04:08:53;;;;;;;7.50;4.62;;;;;;;9.49;100.00;97258.42;4197864;83;28492;-78
2022/01/05 04:14:54;;;;;;;8.43;5.40;;;;;;;9.43;100.00;97237.50;4201301;83;28637;-78
2022/01/05 04:20:56;;;;;;;9.75;5.55;;;;;;;9.41;100.00;97284.44;4185203;83;28551;-77
2022/01/05 04:26:57;;;;;;;6.75;4.90;;;;;;;9.33;100.00;97295.16;4196121;83;28552;-77
2022/01/05 04:32:59;;;;;;;7.08;4.50;;;;;;;9.35;100.00;97292.45;4188679;83;28546;-76
2022/01/05 04:39:00;;;;;;;6.85;4.97;;;;;;;9.25;100.00;97300.48;4193927;83;28538;-78
2022/01/05 04:45:03;;;;;;;8.28;5.25;;;;;;;9.34;100.00;97295.42;4195314;83;29087;-77
2022/01/05 04:51:05;;;;;;;7.92;4.80;;;;;;;9.33;100.00;97308.56;4191631;83;28508;-77
2022/01/05 04:57:06;;;;;;;9.10;4.90;;;;;;;9.41;100.00;97308.58;4186207;83;28556;-77
2022/01/05 05:03:07;;;;;;;8.90;4.72;;;;;;;9.37;100.00;97315.00;4183502;83;28552;-77
2022/01/05 05:09:09;;;;;;;8.73;5.67;;;;;;;9.43;100.00;97323.86;4177725;83;28510;-77
2022/01/05 05:15:10;;;;;;;7.00;5.10;;;;;;;9.26;100.00;97320.08;4175505;83;28501;-77
2022/01/05 05:21:11;;;;;;;7.55;4.97;;;;;;;9.27;100.00;97325.70;4210099;83;28527;-78
2022/01/05 05:27:12;;;;;;;8.58;5.50;;;;;;;9.27;100.00;97325.19;4189299;83;28556;-77
2022/01/05 05:33:14;;;;;;;11.28;6.40;;;;;;;9.38;100.00;97330.02;4198066;83;28484;-80
2022/01/05 05:39:15;;;;;;;12.10;6.62;;;;;;;9.13;100.00;97325.40;4192491;83;28582;-76
2022/01/05 05:45:17;;;;;;;9.73;5.47;;;;;;;9.28;100.00;97327.31;4194250;83;28579;-77
2022/01/05 05:51:18;;;;;;;9.23;6.22;;;;;;;9.34;100.00;97324.92;4215737;82;28526;-77
2022/01/05 05:57:20;;;;;;;9.08;6.10;;;;;;;9.33;100.00;97323.31;4215271;82;28530;-77
2022/01/05 06:03:21;;;;;;;10.82;5.78;;;;;;;9.28;100.00;97328.13;4220353;82;28513;-76
2022/01/05 06:09:22;;;;;;;8.70;5.15;;;;;;;9.30;100.00;97317.94;4217111;82;28561;-77
2022/01/05 06:15:23;;;;;;;8.35;5.45;;;;;;;9.17;100.00;97315.77;4217833;81;28579;-77
2022/01/05 06:21:25;;;;;;;10.35;5.55;;;;;;;9.23;100.00;97328.11;4220461;82;28522;-76
2022/01/05 06:27:26;;;;;;;8.68;6.00;;;;;;;9.19;100.00;97337.21;4224776;82;28553;-78
2022/01/05 06:33:28;;;;;;;9.43;5.30;;;;;;;9.24;100.00;97329.72;4229954;82;28565;-77
2022/01/05 06:39:29;;;;;;;8.18;4.92;;;;;;;9.15;100.00;97309.33;4160980;82;28534;-76
2022/01/05 06:45:30;;;;;;;8.18;5.40;;;;;;;9.11;100.00;97324.34;4216432;82;28524;-76
2022/01/05 06:51:32;;;;;;;8.88;5.45;;;;;;;9.37;100.00;97330.27;4193097;83;28987;-77
2022/01/05 06:57:33;;;;;;;8.80;5.37;;;;;;;9.25;100.00;97333.22;4190459;83;28541;-76
2022/01/05 07:03:34;;;;;;;9.38;6.17;;;;;;;9.28;100.00;97339.38;4182528;83;28548;-77
2022/01/05 07:09:36;;;;;;;7.83;5.80;;;;;;;9.26;100.00;97357.62;4193774;83;28543;-78
2022/01/05 07:15:37;;;;;;;8.58;5.33;;;;;;;9.24;100.00;97371.28;4192768;83;28579;-78
2022/01/05 07:21:39;;;;;;;9.45;5.10;;;;;;;9.17;100.00;97368.84;4184722;83;28582;-77
2022/01/05 07:27:40;;;;;;;7.97;4.62;;;;;;;9.15;100.00;97366.15;4187029;83;28552;-78
2022/01/05 07:33:42;;;;;;;7.70;4.95;;;;;;;9.22;100.00;97373.42;4189278;83;28559;-80
2022/01/05 07:39:43;;;;;;;9.60;5.72;;;;;;;9.25;100.00;97364.84;4188602;83;28510;-76
2022/01/05 07:45:45;;;;;;;11.12;6.30;;;;;;;9.25;100.00;97341.27;4185329;83;28524;-79
2022/01/05 07:51:46;;;;;;;9.05;5.58;;;;;;;9.14;100.00;97349.80;4246557;82;28559;-78
2022/01/05 07:57:47;;;;;;;10.03;5.30;;;;;;;9.25;100.00;97354.12;4262188;82;28509;-78
2022/01/05 08:03:49;;;;;;;8.88;4.97;;;;;;;9.17;100.00;97349.29;4261732;82;28616;-77
2022/01/05 08:09:51;;;;;;;8.50;5.05;;;;;;;9.21;100.00;97342.32;4255742;82;28543;-75
2022/01/05 08:15:53;;;;;;;9.55;5.37;;;;;;;9.18;100.00;97337.49;4254682;82;28523;-75
2022/01/05 08:21:54;;;;;;;9.83;5.70;;;;;;;9.07;100.00;97336.64;4236633;82;28543;-76
2022/01/05 08:27:56;;;;;;;6.83;4.87;;;;;;;8.99;100.00;97337.96;4259933;82;28563;-75
2022/01/05 08:33:59;;;;;;;10.53;5.00;;;;;;;9.04;100.00;97355.39;4266119;82;28552;-75
2022/01/05 08:40:00;;;;;;;6.80;4.50;;;;;;;8.88;100.00;97341.67;4257069;82;28456;-77
2022/01/05 08:46:02;;;;;;;7.47;4.67;;;;;;;9.11;100.00;97349.81;4257451;82;28537;-78
2022/01/05 08:52:04;;;;;;;8.48;5.15;;;;;;;9.17;100.00;97351.97;4200212;83;28543;-74
2022/01/05 08:58:07;;;;;;;8.75;5.20;;;;;;;9.10;100.00;97345.48;4191788;83;28547;-77
2022/01/05 09:04:08;;;;;;;9.90;4.40;;;;;;;9.13;100.00;97345.50;4185049;83;28510;-74
2022/01/05 09:10:10;;;;;;;8.30;5.17;;;;;;;9.19;100.00;97352.51;4189650;83;28495;-75
2022/01/05 09:16:11;;;;;;;9.50;5.28;;;;;;;9.24;100.00;97366.47;4185122;83;28551;-76
2022/01/05 09:22:12;;;;;;;7.90;4.50;;;;;;;8.99;100.00;97385.39;4180254;83;28612;-76
2022/01/05 09:28:13;;;;;;;7.00;4.28;;;;;;;9.11;100.00;97408.80;4187781;83;28543;-77
2022/01/05 09:34:15;;;;;;;9.15;4.50;;;;;;;9.11;100.00;97403.43;4184784;83;28491;-75
2022/01/05 09:47:23;;;;;;;9.03;4.08;;;;;;;9.04;100.00;97405.53;4176335;83;28491;-77
2022/01/05 09:53:27;;;;;;;6.67;3.98;;;;;;;8.88;100.00;97408.67;4265118;81;28553;-76
2022/01/05 09:59:35;;;;;;;10.32;4.70;;;;;;;8.90;100.00;97415.39;4274186;81;28497;-76
2022/01/05 10:05:36;;;;;;;11.63;5.35;;;;;;;9.02;100.00;97420.53;4296639;82;28479;-76
2022/01/05 10:11:37;;;;;;;5.87;3.42;;;;;;;8.96;100.00;97416.23;4270621;81;28532;-76
2022/01/05 10:17:40;;;;;;;7.20;2.98;;;;;;;8.73;100.00;97417.44;4251617;82;28516;-77
2022/01/05 10:23:46;;;;;;;7.35;3.30;;;;;;;8.82;100.00;97418.56;4240870;82;28530;-76
2022/01/05 10:30:00;;;;;;;5.27;2.57;;;;;;;8.84;100.00;97407.56;4265270;81;28568;-76
2022/01/05 10:36:01;;;;;;;6.35;2.75;;;;;;;8.83;100.00;97388.53;4261714;81;36181;-75
2022/01/05 10:42:10;;;;;;;5.28;2.65;;;;;;;9.03;100.00;97393.20;4262832;81;28577;-75
2022/01/05 10:48:15;;;;;;;7.28;2.65;;;;;;;9.01;100.00;97392.66;4255158;81;28554;-76
2022/01/05 10:54:20;;;;;;;6.03;2.83;;;;;;;9.13;100.00;97385.20;4197932;82;28570;-75
2022/01/05 11:00:50;;;;;;;7.33;3.27;;;;;;;9.25;100.00;97376.12;4193859;82;28558;-75
2022/01/05 11:07:04;;;;;;;5.62;3.27;;;;;;;9.53;100.00;97370.83;4197681;82;28516;-75
2022/01/05 11:13:05;;;;;;;5.92;2.90;;;;;;;9.32;100.00;97365.41;4236540;82;28509;-77
2022/01/05 11:19:36;;;;;;;6.03;2.87;;;;;;;9.13;100.00;97362.41;4241714;81;28539;-76
2022/01/05 11:25:39;;;;;;;6.90;3.30;;;;;;;9.41;100.00;97350.94;4207914;82;28459;-75
2022/01/05 11:31:40;;;;;;;5.80;3.25;;;;;;;9.35;100.00;97350.67;4195885;82;28550;-77
2022/01/05 11:37:42;;;;;;;7.05;4.00;;;;;;;9.57;100.00;97355.80;4198047;82;28557;-77
2022/01/05 11:43:44;;;;;;;7.50;4.22;;;;;;;9.60;100.00;97338.37;4210185;82;28592;-76
2022/01/05 11:49:46;;;;;;;9.03;4.08;;;;;;;9.58;100.00;97351.25;4193480;82;28597;-74
2022/01/05 11:56:04;;;;;;;6.70;3.72;;;;;;;9.75;100.00;97349.66;4190042;83;28551;-76
2022/01/05 12:02:13;;;;;;;7.15;4.20;;;;;;;9.67;100.00;97368.96;4193866;83;28505;-76
2022/01/05 12:08:49;;;;;;;9.80;4.87;;;;;;;9.74;100.00;97373.02;4186438;83;28465;-77
2022/01/05 12:14:50;;;;;;;9.93;5.37;;;;;;;9.62;100.00;97367.08;4183857;83;28555;-77
2022/01/05 12:20:54;;;;;;;8.43;4.62;;;;;;;9.50;100.00;97370.02;4190778;83;28547;-78
2022/01/05 12:27:20;;;;;;;8.00;5.12;;;;;;;9.52;100.00;97348.27;4179428;83;28510;-75
2022/01/05 12:33:22;;;;;;;10.45;6.20;;;;;;;9.46;100.00;97363.03;4190544;83;28545;-76
2022/01/05 12:39:46;;;;;;;10.35;5.17;;;;;;;9.38;100.00;97389.03;4189029;83;28526;-77
2022/01/05 12:46:07;;;;;;;8.53;4.80;;;;;;;9.51;100.00;97377.00;4179166;83;28570;-77
2022/01/05 12:52:14;;;;;;;8.58;4.25;;;;;;;9.40;100.00;97380.17;4195994;82;28565;-76
2022/01/05 12:58:15;;;;;;;9.70;5.67;;;;;;;9.60;100.00;97381.30;4203392;82;28527;-77
2022/01/05 13:04:18;;;;;;;11.97;5.80;;;;;;;9.55;100.00;97381.30;4200509;82;28545;-76
2022/01/05 13:10:21;;;;;;;9.25;4.87;;;;;;;9.52;100.00;97376.45;4202911;82;28582;-75
2022/01/05 13:16:27;;;;;;;10.60;5.12;;;;;;;9.40;100.00;97368.11;4203253;82;28540;-77
2022/01/05 13:22:38;;;;;;;9.23;5.15;;;;;;;9.52;100.00;97376.45;4204901;82;28528;-78
2022/01/05 13:28:39;;;;;;;9.23;4.97;;;;;;;9.56;100.00;97372.17;4213675;82;28474;-76
2022/01/05 13:34:49;;;;;;;7.87;4.33;;;;;;;9.54;100.00;97377.02;4211469;82;28558;-75
2022/01/05 13:40:53;;;;;;;7.42;3.67;;;;;;;9.60;100.00;97402.77;4197515;82;28486;-75
2022/01/05 13:46:53;;;;;;;7.00;3.47;;;;;;;9.45;100.00;97410.23;4211693;82;28580;-74
2022/01/05 13:53:04;;;;;;;6.30;3.37;;;;;;;9.51;100.00;97407.03;4208988;82;28512;-75
2022/01/05 13:59:06;;;;;;;5.05;2.55;;;;;;;9.40;100.00;97398.95;4214626;82;28539;-76
2022/01/05 14:05:08;;;;;;;3.98;2.37;;;;;;;9.43;100.00;97407.02;4211104;82;28491;-75
2022/01/05 14:11:18;;;;;;;5.05;2.75;;;;;;;9.34;100.00;97402.16;4220808;82;28530;-75
2022/01/05 14:17:20;;;;;;;4.92;2.85;;;;;;;9.32;100.00;97411.53;4203595;82;28463;-74
2022/01/05 14:23:21;;;;;;;4.83;2.45;;;;;;;9.23;100.00;97422.52;4210142;82;28601;-80
2022/01/05 14:29:25;;;;;;;3.62;2.25;;;;;;;9.05;100.00;97428.59;4201610;82;28534;-76
2022/01/05 14:35:29;;;;;;;3.87;2.10;;;;;;;9.00;100.00;97445.98;4204389;82;28582;-80
2022/01/05 14:41:47;;;;;;;5.08;2.15;;;;;;;9.03;100.00;97449.50;4196906;82;28503;-76
2022/01/05 14:47:49;;;;;;;4.90;2.47;;;;;;;8.79;100.00;97464.09;4204003;82;28567;-78
2022/01/05 14:53:50;;;;;;;5.22;2.60;;;;;;;9.00;100.00;97458.04;4208487;82;28554;-79
2022/01/05 14:59:52;;;;;;;4.42;2.30;;;;;;;9.06;100.00;97452.47;4202600;82;28577;-78
2022/01/05 15:05:54;;;;;;;3.37;1.98;;;;;;;9.13;100.00;97448.73;4201751;82;28540;-80
2022/01/05 15:11:58;;;;;;;4.47;2.12;;;;;;;9.19;100.00;97455.19;4207061;82;28561;-79
2022/01/05 15:18:00;;;;;;;5.12;2.70;;;;;;;9.17;100.00;97462.70;4192008;82;28571;-80
2022/01/05 15:24:03;;;;;;;4.97;2.30;;;;;;;9.18;100.00;97468.88;4207752;82;28503;-80
2022/01/05 15:30:06;;;;;;;6.08;2.67;;;;;;;9.12;100.00;97476.09;4124181;84;28515;-82
2022/01/05 15:36:09;;;;;;;5.25;2.58;;;;;;;9.08;100.00;97470.17;4148889;83;28527;-77
2022/01/05 15:42:10;;;;;;;6.55;2.77;;;;;;;9.14;100.00;97479.31;4153139;84;28451;-78
2022/01/05 15:48:11;;;;;;;6.67;3.47;;;;;;;9.15;100.00;97480.11;4143071;83;28536;-76
2022/01/05 15:54:13;;;;;;;5.92;3.33;;;;;;;9.13;100.00;97478.22;4158772;83;28569;-78
2022/01/05 16:06:39;;;;;;;6.03;3.35;;;;;;;9.00;100.00;97488.34;4161686;84;28496;-82
2022/01/05 16:12:40;;;;;;;6.37;3.27;;;;;;;8.93;100.00;97483.22;4111752;85;28555;-80
2022/01/05 16:18:42;;;;;;;6.40;3.00;;;;;;;8.64;100.00;97481.39;4122552;85;28492;-79
2022/01/05 16:24:43;;;;;;;6.65;2.95;;;;;;;8.94;100.00;97486.69;4274162;81;28522;-79
2022/01/05 16:30:45;;;;;;;5.62;2.65;;;;;;;8.65;100.00;97496.43;4278014;81;28552;-81
2022/01/05 16:36:47;;;;;;;5.28;2.80;;;;;;;8.64;100.00;97513.02;4274470;81;28550;-83
2022/01/05 16:42:48;;;;;;;5.85;2.83;;;;;;;8.81;100.00;97505.91;4291358;81;28545;-79
2022/01/05 16:48:51;;;;;;;5.05;2.55;;;;;;;8.68;100.00;97516.00;4274080;81;28532;-78
2022/01/05 16:55:00;;;;;;;3.83;2.22;;;;;;;8.66;100.00;97524.84;4209886;82;28570;-82
2022/01/05 17:00:56;;;;;;;7.97;4.10;;;;;;;8.46;100.00;97540.98;4202038;82;28546;-81
2022/01/05 17:06:57;;;;;;;8.43;4.20;;;;;;;8.13;100.00;97566.08;4215215;82;28526;-81
2022/01/05 17:12:59;;;;;;;4.97;2.80;;;;;;;8.07;100.00;97582.61;4194872;82;28579;-80
2022/01/05 17:19:01;;;;;;;6.42;2.87;;;;;;;7.80;100.00;97614.95;4208524;82;28574;-81
2022/01/05 17:25:11;;;;;;;6.60;3.75;;;;;;;7.78;100.00;97649.18;4219737;82;28513;-83
2022/01/05 17:31:13;;;;;;;5.72;3.62;;;;;;;7.53;100.00;97671.03;4125883;83;28498;-79
2022/01/05 17:37:14;;;;;;;7.17;3.92;;;;;;;7.25;100.00;97696.79;4061573;86;28543;-81
2022/01/05 17:43:16;;;;;;;4.20;2.12;;;;;;;6.65;100.00;97705.12;4114324;85;28520;-79
2022/01/05 17:49:19;;;;;;;3.58;1.90;;;;;;;6.57;100.00;97743.42;4115833;84;28483;-78
2022/01/05 17:55:21;;;;;;;4.30;2.22;;;;;;;6.25;100.00;97743.30;4129011;84;28566;-80
2022/01/05 18:01:22;;;;;;;5.62;2.20;;;;;;;5.68;100.00;97743.38;4072105;85;28516;-79
2022/01/05 18:07:23;;;;;;;4.78;2.42;;;;;;;6.10;100.00;97763.80;4199967;82;28537;-78
2022/01/05 18:13:26;;;;;;;6.67;3.08;;;;;;;6.16;100.00;97788.73;4190592;82;28567;-81
2022/01/05 18:19:28;;;;;;;7.78;3.80;;;;;;;5.92;100.00;97802.05;4191355;82;28533;-79
2022/01/05 18:25:30;;;;;;;6.58;3.60;;;;;;;5.83;100.00;97795.72;4199169;82;28478;-80
2022/01/05 18:31:33;;;;;;;7.22;4.20;;;;;;;6.10;100.00;97803.31;4204632;82;28494;-78
2022/01/05 18:37:39;;;;;;;7.75;4.30;;;;;;;6.06;100.00;97786.66;4198459;82;28503;-80
2022/01/05 18:43:40;;;;;;;7.17;3.85;;;;;;;6.14;100.00;97795.12;4195712;82;42807;-78
2022/01/05 18:49:42;;;;;;;10.23;3.60;;;;;;;5.97;100.00;97803.49;4191363;82;28576;-77
2022/01/05 18:55:43;;;;;;;8.73;3.83;;;;;;;5.96;100.00;97806.70;4195036;83;28570;-78
2022/01/05 19:01:44;;;;;;;8.05;4.20;;;;;;;6.13;100.00;97815.36;4203570;83;28538;-75
2022/01/05 19:07:46;;;;;;;8.38;4.78;;;;;;;6.00;100.00;97825.73;4196973;83;28543;-79
2022/01/05 19:13:49;;;;;;;9.85;3.92;;;;;;;5.89;100.00;97823.87;4188476;83;28578;-77
2022/01/05 19:19:50;;;;;;;11.08;4.60;;;;;;;5.83;100.00;97856.25;4198163;83;28515;-77
2022/01/05 19:25:52;;;;;;;9.73;4.85;;;;;;;5.87;100.00;97873.44;4191918;83;28538;-77
2022/01/05 19:31:53;;;;;;;11.48;5.50;;;;;;;5.92;100.00;97871.42;4194029;83;28574;-77
2022/01/05 19:37:55;;;;;;;11.12;5.10;;;;;;;5.80;100.00;97882.87;4185197;83;28471;-77
2022/01/05 19:43:56;;;;;;;11.65;4.60;;;;;;;5.84;100.00;97883.24;4199132;83;28491;-77
2022/01/05 19:49:59;;;;;;;9.70;4.35;;;;;;;5.64;100.00;97874.19;4203672;83;28550;-78
2022/01/05 19:56:18;;;;;;;11.33;4.60;;;;;;;5.61;100.00;97882.11;4214748;82;28584;-76
2022/01/05 20:02:15;;;;;;;11.55;4.65;;;;;;;5.54;100.00;97884.08;4196975;82;28523;-78
2022/01/05 20:08:16;;;;;;;11.08;5.12;;;;;;;5.43;100.00;97875.81;4206082;82;28586;-76
2022/01/05 20:14:18;;;;;;;12.55;5.47;;;;;;;5.29;100.00;97875.69;4202067;82;28520;-75
2022/01/05 20:20:23;;;;;;;13.98;5.72;;;;;;;5.44;100.00;97883.27;4196294;82;28522;-75
2022/01/05 20:26:27;;;;;;;13.28;6.28;;;;;;;5.32;100.00;97893.91;4195266;82;28517;-78
2022/01/05 20:32:29;;;;;;;15.68;7.03;;;;;;;5.33;100.00;97894.20;4193701;82;28507;-86
2022/01/05 20:38:33;;;;;;;15.45;7.30;;;;;;;5.32;100.00;97913.08;4192998;82;28546;-83
2022/01/05 20:44:34;;;;;;;15.00;6.83;;;;;;;5.23;100.00;97896.05;4199822;82;28587;-82
2022/01/05 20:50:36;;;;;;;15.30;6.67;;;;;;;5.17;100.00;97890.30;4200821;83;28568;-79
2022/01/05 20:56:37;;;;;;;19.80;7.87;;;;;;;5.13;100.00;97907.76;4199427;83;28506;-78
2022/01/05 21:02:41;;;;;;;16.87;8.25;;;;;;;5.03;100.00;97911.76;4198413;83;28554;-81
2022/01/05 21:08:42;;;;;;;20.43;8.18;;;;;;;4.95;100.00;97924.06;4200351;83;28502;-81
2022/01/05 21:14:44;;;;;;;15.90;7.85;;;;;;;4.87;100.00;97920.36;4199149;83;28494;-78
2022/01/05 21:20:46;;;;;;;16.52;7.58;;;;;;;4.85;100.00;97899.80;4189538;83;28603;-77
2022/01/05 21:26:50;;;;;;;15.85;7.12;;;;;;;4.62;100.00;97924.41;4199702;83;28528;-78
2022/01/05 21:32:53;;;;;;;17.27;5.45;;;;;;;4.79;100.00;97924.64;4201216;83;28541;-75
2022/01/05 21:38:54;;;;;;;11.78;4.15;;;;;;;4.71;100.00;97925.75;4196122;83;28538;-77
2022/01/05 21:44:57;;;;;;;10.08;3.80;;;;;;;4.63;100.00;97928.16;4204915;83;28474;-81
2022/01/05 21:51:01;;;;;;;8.75;3.47;;;;;;;4.50;100.00;97933.61;4198550;83;28543;-78
2022/01/05 21:57:03;;;;;;;7.33;3.17;;;;;;;4.39;100.00;97933.30;4205551;83;28530;-80
2022/01/05 22:03:04;;;;;;;7.65;2.77;;;;;;;4.42;100.00;97932.05;4173998;83;28484;-82
2022/01/05 22:09:10;;;;;;;8.43;2.50;;;;;;;4.48;100.00;97929.86;4198834;83;28561;-82
2022/01/05 22:15:14;;;;;;;8.35;2.62;;;;;;;4.29;100.00;97922.33;4205055;83;28561;-82
2022/01/05 22:21:16;;;;;;;5.08;2.45;;;;;;;4.19;100.00;97930.28;4196793;83;28575;-83
2022/01/05 22:27:17;;;;;;;6.78;2.75;;;;;;;4.21;100.00;97931.41;4195157;83;28539;-81
2022/01/05 22:33:19;;;;;;;7.97;2.50;;;;;;;4.17;100.00;97937.67;4202478;83;28534;-82
2022/01/05 22:39:20;;;;;;;5.90;2.47;;;;;;;4.14;100.00;97933.30;4189183;83;28505;-82
2022/01/05 22:45:21;;;;;;;7.87;2.80;;;;;;;4.17;100.00;97939.53;4208006;83;28636;-79
2022/01/05 22:51:22;;;;;;;8.65;2.37;;;;;;;4.04;100.00;97951.08;4206460;83;28520;-78
2022/01/05 22:57:24;;;;;;;4.25;2.08;;;;;;;4.16;100.00;97956.50;4194359;83;28530;-79
2022/01/05 23:03:26;;;;;;;6.17;2.92;;;;;;;4.22;100.00;97952.16;4196910;83;28514;-80
2022/01/05 23:09:27;;;;;;;6.87;2.47;;;;;;;4.12;100.00;97946.83;4189914;83;28670;-82
2022/01/05 23:15:32;;;;;;;6.92;2.70;;;;;;;4.08;100.00;97955.45;4180754;83;28549;-78
2022/01/05 23:21:34;;;;;;;6.53;2.37;;;;;;;4.07;100.00;97951.97;4185946;83;28581;-82
2022/01/05 23:27:38;;;;;;;6.15;2.35;;;;;;;3.96;100.00;97953.48;4193799;83;28533;-78
2022/01/05 23:33:40;;;;;;;6.85;2.47;;;;;;;3.97;100.00;97960.94;4193696;83;28534;-78
2022/01/05 23:39:43;;;;;;;7.97;2.10;;;;;;;4.02;100.00;97963.78;4191830;83;28575;-77
2022/01/05 23:45:44;;;;;;;7.03;2.05;;;;;;;4.09;100.00;97956.55;4190722;83;28533;-77
2022/01/05 23:51:45;;;;;;;6.50;2.30;;;;;;;3.99;100.00;97954.88;4182975;82;28588;-79
2022/01/05 23:57:46;;;;;;;6.58;2.30;;;;;;;4.08;100.00;97969.55;4198470;82;28522;-79
